sensor_id;sensor_type;location;lat;lon;timestamp;pressure;altitude;pressure_sealevel;temperature;humidity
43125;BME280;49182;50.788;7.318;2022-08-19T00:01:32;100540.31;;;17.28;78.17
43125;BME280;49182;50.788;7.318;2022-08-19T00:04:05;100543.38;;;17.25;78.63
43125;BME280;49182;50.788;7.318;2022-08-19T00:06:33;100547.22;;;17.23;78.85
43125;BME280;49182;50.788;7.318;2022-08-19T00:09:01;100550.91;;;17.22;79.29
43125;BME280;49182;50.788;7.318;2022-08-19T00:11:27;100550.44;;;17.18;79.67
43125;BME280;49182;50.788;7.318;2022-08-19T00:13:55;100551.97;;;17.13;79.80
43125;BME280;49182;50.788;7.318;2022-08-19T00:16:23;100542.56;;;17.02;79.69
43125;BME280;49182;50.788;7.318;2022-08-19T00:18:52;100564.19;;;17.07;79.84
43125;BME280;49182;50.788;7.318;2022-08-19T00:21:19;100567.03;;;17.06;79.90
43125;BME280;49182;50.788;7.318;2022-08-19T00:23:46;100562.41;;;16.99;79.99
43125;BME280;49182;50.788;7.318;2022-08-19T00:26:13;100574.72;;;17.01;79.86
43125;BME280;49182;50.788;7.318;2022-08-19T00:28:39;100581.44;;;16.96;79.96
43125;BME280;49182;50.788;7.318;2022-08-19T00:31:08;100573.78;;;16.93;79.77
43125;BME280;49182;50.788;7.318;2022-08-19T00:33:36;100575.97;;;16.90;79.45
43125;BME280;49182;50.788;7.318;2022-08-19T00:36:05;100570.81;;;16.88;79.61
43125;BME280;49182;50.788;7.318;2022-08-19T00:38:32;100570.97;;;16.87;79.65
43125;BME280;49182;50.788;7.318;2022-08-19T00:41:03;100575.47;;;16.86;79.78
43125;BME280;49182;50.788;7.318;2022-08-19T00:43:30;100576.31;;;16.87;79.80
43125;BME280;49182;50.788;7.318;2022-08-19T00:45:57;100566.03;;;16.76;79.93
43125;BME280;49182;50.788;7.318;2022-08-19T00:48:25;100539.63;;;16.66;79.91
43125;BME280;49182;50.788;7.318;2022-08-19T00:50:53;100576.47;;;16.85;80.24
43125;BME280;49182;50.788;7.318;2022-08-19T00:53:23;100564.47;;;16.89;81.06
43125;BME280;49182;50.788;7.318;2022-08-19T00:55:53;100556.69;;;16.80;81.18
43125;BME280;49182;50.788;7.318;2022-08-19T00:58:22;100568.84;;;16.82;81.24
43125;BME280;49182;50.788;7.318;2022-08-19T01:00:50;100572.69;;;16.80;81.02
43125;BME280;49182;50.788;7.318;2022-08-19T01:03:18;100570.22;;;16.78;80.80
43125;BME280;49182;50.788;7.318;2022-08-19T01:05:47;100568.88;;;16.74;80.49
43125;BME280;49182;50.788;7.318;2022-08-19T01:08:16;100558.09;;;16.68;80.24
43125;BME280;49182;50.788;7.318;2022-08-19T01:10:47;100563.09;;;16.71;80.36
43125;BME280;49182;50.788;7.318;2022-08-19T01:13:16;100560.75;;;16.68;80.36
43125;BME280;49182;50.788;7.318;2022-08-19T01:15:47;100556.25;;;16.68;80.49
43125;BME280;49182;50.788;7.318;2022-08-19T01:18:16;100538.41;;;16.69;80.86
43125;BME280;49182;50.788;7.318;2022-08-19T01:20:44;100532.63;;;16.65;81.17
43125;BME280;49182;50.788;7.318;2022-08-19T01:23:14;100539.13;;;16.63;81.77
43125;BME280;49182;50.788;7.318;2022-08-19T01:25:45;100538.78;;;16.57;81.87
43125;BME280;49182;50.788;7.318;2022-08-19T01:28:17;100542.81;;;16.53;81.61
43125;BME280;49182;50.788;7.318;2022-08-19T01:31:00;100547.81;;;16.48;81.92
43125;BME280;49182;50.788;7.318;2022-08-19T01:33:39;100551.69;;;16.46;82.13
43125;BME280;49182;50.788;7.318;2022-08-19T01:36:09;100552.38;;;16.40;82.64
43125;BME280;49182;50.788;7.318;2022-08-19T01:38:39;100549.06;;;16.30;82.86
43125;BME280;49182;50.788;7.318;2022-08-19T01:41:10;100558.22;;;16.35;83.12
43125;BME280;49182;50.788;7.318;2022-08-19T01:43:38;100560.75;;;16.29;83.36
43125;BME280;49182;50.788;7.318;2022-08-19T01:46:24;100560.56;;;16.30;83.43
43125;BME280;49182;50.788;7.318;2022-08-19T01:48:51;100559.72;;;16.30;83.00
43125;BME280;49182;50.788;7.318;2022-08-19T01:51:18;100548.13;;;16.23;82.85
43125;BME280;49182;50.788;7.318;2022-08-19T01:53:48;100565.88;;;16.30;82.61
43125;BME280;49182;50.788;7.318;2022-08-19T01:56:15;100560.56;;;16.30;82.59
43125;BME280;49182;50.788;7.318;2022-08-19T01:58:45;100559.56;;;16.31;82.69
43125;BME280;49182;50.788;7.318;2022-08-19T02:01:13;100566.72;;;16.31;82.72
43125;BME280;49182;50.788;7.318;2022-08-19T02:03:40;100552.41;;;16.32;83.16
43125;BME280;49182;50.788;7.318;2022-08-19T02:06:07;100554.59;;;16.28;83.00
43125;BME280;49182;50.788;7.318;2022-08-19T02:08:36;100550.25;;;16.27;82.88
43125;BME280;49182;50.788;7.318;2022-08-19T02:11:05;100542.44;;;16.26;83.28
43125;BME280;49182;50.788;7.318;2022-08-19T02:13:33;100536.50;;;16.15;82.92
43125;BME280;49182;50.788;7.318;2022-08-19T02:16:00;100548.28;;;16.21;83.05
43125;BME280;49182;50.788;7.318;2022-08-19T02:18:30;100541.63;;;16.17;83.29
43125;BME280;49182;50.788;7.318;2022-08-19T02:20:56;100538.16;;;16.16;83.20
43125;BME280;49182;50.788;7.318;2022-08-19T02:23:23;100537.31;;;16.16;83.73
43125;BME280;49182;50.788;7.318;2022-08-19T02:29:03;100546.47;;;16.13;84.26
43125;BME280;49182;50.788;7.318;2022-08-19T02:31:30;100550.13;;;16.12;84.06
43125;BME280;49182;50.788;7.318;2022-08-19T02:33:57;100548.81;;;16.08;84.00
43125;BME280;49182;50.788;7.318;2022-08-19T02:36:24;100552.66;;;16.06;84.02
43125;BME280;49182;50.788;7.318;2022-08-19T02:38:52;100562.47;;;16.05;83.62
43125;BME280;49182;50.788;7.318;2022-08-19T02:41:22;100560.84;;;16.04;83.56
43125;BME280;49182;50.788;7.318;2022-08-19T02:43:52;100556.19;;;15.98;83.86
43125;BME280;49182;50.788;7.318;2022-08-19T02:46:40;100558.84;;;15.98;83.63
43125;BME280;49182;50.788;7.318;2022-08-19T02:49:07;100540.75;;;15.86;83.80
43125;BME280;49182;50.788;7.318;2022-08-19T02:51:36;100535.91;;;15.81;83.61
43125;BME280;49182;50.788;7.318;2022-08-19T02:54:04;100564.19;;;15.98;83.68
43125;BME280;49182;50.788;7.318;2022-08-19T02:56:31;100559.34;;;15.94;83.82
43125;BME280;49182;50.788;7.318;2022-08-19T02:59:00;100556.03;;;15.92;83.88
43125;BME280;49182;50.788;7.318;2022-08-19T03:01:28;100549.03;;;15.91;84.10
43125;BME280;49182;50.788;7.318;2022-08-19T03:03:59;100550.03;;;15.90;84.13
43125;BME280;49182;50.788;7.318;2022-08-19T03:06:26;100544.88;;;15.88;84.26
43125;BME280;49182;50.788;7.318;2022-08-19T03:08:53;100553.88;;;15.87;84.25
43125;BME280;49182;50.788;7.318;2022-08-19T03:11:22;100537.94;;;15.71;84.33
43125;BME280;49182;50.788;7.318;2022-08-19T03:13:50;100552.88;;;15.80;84.28
43125;BME280;49182;50.788;7.318;2022-08-19T03:16:18;100558.56;;;15.85;84.10
43125;BME280;49182;50.788;7.318;2022-08-19T03:18:46;100553.38;;;15.84;84.35
43125;BME280;49182;50.788;7.318;2022-08-19T03:21:17;100554.22;;;15.84;84.69
43125;BME280;49182;50.788;7.318;2022-08-19T03:23:44;100550.06;;;15.82;84.94
43125;BME280;49182;50.788;7.318;2022-08-19T03:26:10;100563.38;;;15.82;85.11
43125;BME280;49182;50.788;7.318;2022-08-19T03:28:43;100549.09;;;15.66;85.04
43125;BME280;49182;50.788;7.318;2022-08-19T03:31:23;100520.31;;;15.37;84.99
43125;BME280;49182;50.788;7.318;2022-08-19T03:34:16;100581.84;;;15.75;85.06
43125;BME280;49182;50.788;7.318;2022-08-19T03:36:45;100579.19;;;15.75;85.46
43125;BME280;49182;50.788;7.318;2022-08-19T03:39:13;100579.38;;;15.73;85.30
43125;BME280;49182;50.788;7.318;2022-08-19T03:41:42;100571.53;;;15.72;85.16
43125;BME280;49182;50.788;7.318;2022-08-19T03:44:12;100567.22;;;15.71;84.88
43125;BME280;49182;50.788;7.318;2022-08-19T03:46:45;100551.59;;;15.60;84.66
43125;BME280;49182;50.788;7.318;2022-08-19T03:49:12;100580.69;;;15.69;84.93
43125;BME280;49182;50.788;7.318;2022-08-19T03:51:41;100578.38;;;15.66;84.58
43125;BME280;49182;50.788;7.318;2022-08-19T03:54:12;100580.22;;;15.66;84.69
43125;BME280;49182;50.788;7.318;2022-08-19T03:56:41;100578.38;;;15.66;85.00
43125;BME280;49182;50.788;7.318;2022-08-19T03:59:10;100582.19;;;15.64;85.25
43125;BME280;49182;50.788;7.318;2022-08-19T04:01:37;100593.00;;;15.62;85.20
43125;BME280;49182;50.788;7.318;2022-08-19T04:04:04;100593.34;;;15.59;85.42
43125;BME280;49182;50.788;7.318;2022-08-19T04:06:35;100578.69;;;15.47;85.53
43125;BME280;49182;50.788;7.318;2022-08-19T04:09:07;100592.84;;;15.56;85.65
43125;BME280;49182;50.788;7.318;2022-08-19T04:11:37;100583.66;;;15.50;86.07
43125;BME280;49182;50.788;7.318;2022-08-19T04:14:11;100597.16;;;15.49;86.04
43125;BME280;49182;50.788;7.318;2022-08-19T04:16:38;100598.31;;;15.46;86.14
43125;BME280;49182;50.788;7.318;2022-08-19T04:19:05;100590.31;;;15.46;85.83
43125;BME280;49182;50.788;7.318;2022-08-19T04:21:35;100585.66;;;15.40;85.69
43125;BME280;49182;50.788;7.318;2022-08-19T04:24:03;100588.81;;;15.44;85.44
43125;BME280;49182;50.788;7.318;2022-08-19T04:26:32;100588.31;;;15.40;85.49
43125;BME280;49182;50.788;7.318;2022-08-19T04:29:01;100586.16;;;15.35;85.39
43125;BME280;49182;50.788;7.318;2022-08-19T04:31:29;100587.66;;;15.30;85.47
43125;BME280;49182;50.788;7.318;2022-08-19T04:33:58;100578.00;;;15.21;85.35
43125;BME280;49182;50.788;7.318;2022-08-19T04:36:27;100579.66;;;15.22;86.02
43125;BME280;49182;50.788;7.318;2022-08-19T04:38:56;100607.28;;;15.29;86.00
43125;BME280;49182;50.788;7.318;2022-08-19T04:41:24;100605.47;;;15.29;85.61
43125;BME280;49182;50.788;7.318;2022-08-19T04:43:51;100595.63;;;15.22;85.32
43125;BME280;49182;50.788;7.318;2022-08-19T04:46:19;100606.44;;;15.28;85.59
43125;BME280;49182;50.788;7.318;2022-08-19T04:49:06;100608.94;;;15.30;85.13
43125;BME280;49182;50.788;7.318;2022-08-19T04:51:40;100602.59;;;15.31;85.17
43125;BME280;49182;50.788;7.318;2022-08-19T04:54:07;100605.25;;;15.31;84.92
43125;BME280;49182;50.788;7.318;2022-08-19T04:56:34;100610.75;;;15.37;85.38
43125;BME280;49182;50.788;7.318;2022-08-19T04:59:01;100617.75;;;15.38;85.61
43125;BME280;49182;50.788;7.318;2022-08-19T05:01:30;100619.75;;;15.36;85.69
43125;BME280;49182;50.788;7.318;2022-08-19T05:03:57;100613.59;;;15.36;85.63
43125;BME280;49182;50.788;7.318;2022-08-19T05:06:24;100617.91;;;15.37;85.71
43125;BME280;49182;50.788;7.318;2022-08-19T05:08:50;100614.59;;;15.35;86.02
43125;BME280;49182;50.788;7.318;2022-08-19T05:11:20;100623.06;;;15.38;86.22
43125;BME280;49182;50.788;7.318;2022-08-19T05:13:52;100619.56;;;15.38;85.88
43125;BME280;49182;50.788;7.318;2022-08-19T05:16:21;100630.06;;;15.39;86.18
43125;BME280;49182;50.788;7.318;2022-08-19T05:18:49;100623.56;;;15.34;86.29
43125;BME280;49182;50.788;7.318;2022-08-19T05:21:18;100633.22;;;15.43;85.97
43125;BME280;49182;50.788;7.318;2022-08-19T05:23:45;100625.22;;;15.43;85.90
43125;BME280;49182;50.788;7.318;2022-08-19T05:26:11;100634.94;;;15.52;85.78
43125;BME280;49182;50.788;7.318;2022-08-19T05:28:38;100636.09;;;15.58;85.45
43125;BME280;49182;50.788;7.318;2022-08-19T05:31:04;100639.91;;;15.63;85.60
43125;BME280;49182;50.788;7.318;2022-08-19T05:33:31;100641.44;;;15.66;85.44
43125;BME280;49182;50.788;7.318;2022-08-19T05:36:01;100621.28;;;15.63;85.27
43125;BME280;49182;50.788;7.318;2022-08-19T05:38:28;100637.44;;;15.78;85.44
43125;BME280;49182;50.788;7.318;2022-08-19T05:40:55;100632.59;;;15.82;85.36
43125;BME280;49182;50.788;7.318;2022-08-19T05:43:22;100636.25;;;15.89;85.33
43125;BME280;49182;50.788;7.318;2022-08-19T05:45:48;100634.41;;;15.97;85.13
43125;BME280;49182;50.788;7.318;2022-08-19T05:48:15;100641.38;;;16.06;85.12
43125;BME280;49182;50.788;7.318;2022-08-19T05:50:42;100649.06;;;16.09;85.14
43125;BME280;49182;50.788;7.318;2022-08-19T05:53:10;100638.25;;;16.03;84.93
43125;BME280;49182;50.788;7.318;2022-08-19T05:55:36;100652.34;;;16.19;84.84
43125;BME280;49182;50.788;7.318;2022-08-19T05:58:03;100642.19;;;16.23;84.65
43125;BME280;49182;50.788;7.318;2022-08-19T06:00:30;100649.63;;;16.36;84.33
43125;BME280;49182;50.788;7.318;2022-08-19T06:02:56;100647.78;;;16.44;83.95
43125;BME280;49182;50.788;7.318;2022-08-19T06:05:23;100629.13;;;16.44;83.63
43125;BME280;49182;50.788;7.318;2022-08-19T06:07:50;100652.28;;;16.60;83.62
43125;BME280;49182;50.788;7.318;2022-08-19T06:10:18;100655.41;;;16.72;83.71
43125;BME280;49182;50.788;7.318;2022-08-19T06:12:45;100655.03;;;16.83;83.54
43125;BME280;49182;50.788;7.318;2022-08-19T06:15:13;100645.13;;;16.91;83.28
43125;BME280;49182;50.788;7.318;2022-08-19T06:17:40;100655.44;;;17.03;82.84
43125;BME280;49182;50.788;7.318;2022-08-19T06:20:09;100651.03;;;17.10;82.57
43125;BME280;49182;50.788;7.318;2022-08-19T06:22:37;100649.31;;;17.17;82.22
43125;BME280;49182;50.788;7.318;2022-08-19T06:25:05;100645.94;;;17.23;82.13
43125;BME280;49182;50.788;7.318;2022-08-19T06:27:33;100650.41;;;17.30;81.97
43125;BME280;49182;50.788;7.318;2022-08-19T06:30:00;100650.72;;;17.35;81.87
43125;BME280;49182;50.788;7.318;2022-08-19T06:32:27;100655.16;;;17.43;81.80
43125;BME280;49182;50.788;7.318;2022-08-19T06:34:53;100651.63;;;17.51;81.57
43125;BME280;49182;50.788;7.318;2022-08-19T06:37:20;100651.72;;;17.57;81.36
43125;BME280;49182;50.788;7.318;2022-08-19T06:39:47;100655.19;;;17.66;81.13
43125;BME280;49182;50.788;7.318;2022-08-19T06:42:14;100651.44;;;17.75;80.40
43125;BME280;49182;50.788;7.318;2022-08-19T06:44:46;100654.25;;;17.82;80.47
43125;BME280;49182;50.788;7.318;2022-08-19T06:47:17;100650.28;;;17.92;80.24
43125;BME280;49182;50.788;7.318;2022-08-19T06:49:54;100654.84;;;18.06;79.83
43125;BME280;49182;50.788;7.318;2022-08-19T06:52:26;100653.38;;;18.18;80.09
43125;BME280;49182;50.788;7.318;2022-08-19T06:54:54;100657.09;;;18.32;79.86
43125;BME280;49182;50.788;7.318;2022-08-19T06:57:21;100624.19;;;18.32;79.49
43125;BME280;49182;50.788;7.318;2022-08-19T06:59:49;100656.94;;;18.63;78.95
43125;BME280;49182;50.788;7.318;2022-08-19T07:02:17;100658.56;;;18.79;78.35
43125;BME280;49182;50.788;7.318;2022-08-19T07:04:48;100663.34;;;18.98;77.84
43125;BME280;49182;50.788;7.318;2022-08-19T07:07:19;100666.00;;;19.13;77.77
43125;BME280;49182;50.788;7.318;2022-08-19T07:09:48;100669.09;;;19.31;77.77
43125;BME280;49182;50.788;7.318;2022-08-19T07:12:26;100664.34;;;19.48;77.13
43125;BME280;49182;50.788;7.318;2022-08-19T07:14:57;100665.38;;;19.68;77.02
43125;BME280;49182;50.788;7.318;2022-08-19T07:17:24;100665.09;;;19.84;76.52
43125;BME280;49182;50.788;7.318;2022-08-19T07:19:51;100669.34;;;20.00;75.90
43125;BME280;49182;50.788;7.318;2022-08-19T07:22:21;100670.13;;;20.22;75.92
43125;BME280;49182;50.788;7.318;2022-08-19T07:24:49;100675.44;;;20.36;75.46
43125;BME280;49182;50.788;7.318;2022-08-19T07:27:17;100678.16;;;20.43;74.47
43125;BME280;49182;50.788;7.318;2022-08-19T07:29:50;100679.69;;;20.58;74.05
43125;BME280;49182;50.788;7.318;2022-08-19T07:32:24;100661.63;;;20.74;73.39
43125;BME280;49182;50.788;7.318;2022-08-19T07:34:51;100685.03;;;20.99;73.02
43125;BME280;49182;50.788;7.318;2022-08-19T07:37:17;100687.22;;;21.24;72.33
43125;BME280;49182;50.788;7.318;2022-08-19T07:39:44;100667.41;;;21.25;70.99
43125;BME280;49182;50.788;7.318;2022-08-19T07:42:11;100678.84;;;21.53;70.86
43125;BME280;49182;50.788;7.318;2022-08-19T07:44:39;100680.09;;;21.57;69.10
43125;BME280;49182;50.788;7.318;2022-08-19T07:47:11;100676.16;;;21.73;69.21
43125;BME280;49182;50.788;7.318;2022-08-19T07:49:59;100683.41;;;21.92;68.51
43125;BME280;49182;50.788;7.318;2022-08-19T07:52:25;100672.47;;;21.94;67.70
43125;BME280;49182;50.788;7.318;2022-08-19T07:54:52;100671.28;;;22.09;67.65
43125;BME280;49182;50.788;7.318;2022-08-19T07:57:19;100672.91;;;22.10;67.53
43125;BME280;49182;50.788;7.318;2022-08-19T07:59:45;100681.41;;;22.14;66.81
43125;BME280;49182;50.788;7.318;2022-08-19T08:02:12;100677.22;;;22.44;66.37
43125;BME280;49182;50.788;7.318;2022-08-19T08:04:39;100685.88;;;22.59;65.61
43125;BME280;49182;50.788;7.318;2022-08-19T08:07:07;100689.19;;;22.75;65.28
43125;BME280;49182;50.788;7.318;2022-08-19T08:09:36;100683.72;;;22.94;65.07
43125;BME280;49182;50.788;7.318;2022-08-19T08:12:06;100692.03;;;22.86;64.35
43125;BME280;49182;50.788;7.318;2022-08-19T08:14:56;100682.03;;;23.07;63.79
43125;BME280;49182;50.788;7.318;2022-08-19T08:17:26;100678.59;;;23.31;63.17
43125;BME280;49182;50.788;7.318;2022-08-19T08:20:14;100689.97;;;23.33;62.30
43125;BME280;49182;50.788;7.318;2022-08-19T08:22:44;100692.91;;;23.25;62.89
43125;BME280;49182;50.788;7.318;2022-08-19T08:25:15;100699.50;;;23.35;62.71
43125;BME280;49182;50.788;7.318;2022-08-19T08:27:43;100698.19;;;23.51;62.23
43125;BME280;49182;50.788;7.318;2022-08-19T08:30:16;100692.97;;;23.56;61.87
43125;BME280;49182;50.788;7.318;2022-08-19T08:32:44;100698.56;;;23.86;61.40
43125;BME280;49182;50.788;7.318;2022-08-19T08:35:13;100692.19;;;24.05;60.51
43125;BME280;49182;50.788;7.318;2022-08-19T08:37:40;100704.28;;;23.96;60.42
43125;BME280;49182;50.788;7.318;2022-08-19T08:40:16;100700.47;;;24.10;59.54
43125;BME280;49182;50.788;7.318;2022-08-19T08:42:50;100697.06;;;24.22;59.71
43125;BME280;49182;50.788;7.318;2022-08-19T08:45:20;100710.00;;;24.38;58.55
43125;BME280;49182;50.788;7.318;2022-08-19T08:47:49;100710.34;;;24.23;57.46
43125;BME280;49182;50.788;7.318;2022-08-19T08:50:19;100709.75;;;24.39;57.92
43125;BME280;49182;50.788;7.318;2022-08-19T08:52:54;100703.97;;;24.61;58.05
43125;BME280;49182;50.788;7.318;2022-08-19T08:55:26;100709.50;;;24.66;57.15
43125;BME280;49182;50.788;7.318;2022-08-19T08:58:05;100709.78;;;24.57;56.66
43125;BME280;49182;50.788;7.318;2022-08-19T09:00:35;100706.44;;;24.80;55.83
43125;BME280;49182;50.788;7.318;2022-08-19T09:03:17;100706.69;;;24.97;55.37
43125;BME280;49182;50.788;7.318;2022-08-19T09:05:53;100705.31;;;25.06;55.16
43125;BME280;49182;50.788;7.318;2022-08-19T09:08:30;100700.25;;;24.98;54.32
43125;BME280;49182;50.788;7.318;2022-08-19T09:11:04;100711.13;;;24.91;55.40
43125;BME280;49182;50.788;7.318;2022-08-19T09:13:48;100697.16;;;24.94;55.34
43125;BME280;49182;50.788;7.318;2022-08-19T09:16:21;100701.97;;;25.11;54.61
43125;BME280;49182;50.788;7.318;2022-08-19T09:18:56;100672.44;;;25.09;53.72
43125;BME280;49182;50.788;7.318;2022-08-19T09:21:24;100689.06;;;25.43;54.11
43125;BME280;49182;50.788;7.318;2022-08-19T09:23:59;100693.06;;;25.22;53.38
43125;BME280;49182;50.788;7.318;2022-08-19T09:26:27;100683.34;;;25.32;53.05
43125;BME280;49182;50.788;7.318;2022-08-19T09:29:13;100679.28;;;25.42;53.37
43125;BME280;49182;50.788;7.318;2022-08-19T09:31:40;100687.84;;;25.38;52.16
43125;BME280;49182;50.788;7.318;2022-08-19T09:34:06;100679.81;;;25.32;52.18
43125;BME280;49182;50.788;7.318;2022-08-19T09:36:47;100684.22;;;25.45;52.90
43125;BME280;49182;50.788;7.318;2022-08-19T09:39:13;100675.03;;;25.64;52.18
43125;BME280;49182;50.788;7.318;2022-08-19T09:41:43;100669.41;;;25.65;52.00
43125;BME280;49182;50.788;7.318;2022-08-19T09:44:15;100684.84;;;25.88;51.27
43125;BME280;49182;50.788;7.318;2022-08-19T09:46:43;100687.22;;;26.08;50.14
43125;BME280;49182;50.788;7.318;2022-08-19T09:49:10;100684.63;;;26.01;48.76
43125;BME280;49182;50.788;7.318;2022-08-19T09:51:38;100686.06;;;26.15;48.26
43125;BME280;49182;50.788;7.318;2022-08-19T09:54:06;100694.47;;;25.84;48.88
43125;BME280;49182;50.788;7.318;2022-08-19T09:56:36;100678.34;;;25.66;49.37
43125;BME280;49182;50.788;7.318;2022-08-19T09:59:04;100685.44;;;25.90;49.76
43125;BME280;49182;50.788;7.318;2022-08-19T10:01:32;100680.53;;;26.10;48.84
43125;BME280;49182;50.788;7.318;2022-08-19T10:04:00;100669.94;;;26.32;48.93
43125;BME280;49182;50.788;7.318;2022-08-19T10:06:29;100670.41;;;26.52;48.94
43125;BME280;49182;50.788;7.318;2022-08-19T10:09:12;100687.09;;;26.73;46.90
43125;BME280;49182;50.788;7.318;2022-08-19T10:11:40;100689.78;;;26.73;47.35
43125;BME280;49182;50.788;7.318;2022-08-19T10:14:19;100676.63;;;26.65;47.33
43125;BME280;49182;50.788;7.318;2022-08-19T10:16:46;100684.16;;;26.74;47.95
43125;BME280;49182;50.788;7.318;2022-08-19T10:19:12;100680.16;;;26.88;47.01
43125;BME280;49182;50.788;7.318;2022-08-19T10:21:39;100673.00;;;26.59;47.96
43125;BME280;49182;50.788;7.318;2022-08-19T10:24:06;100668.97;;;26.62;47.63
43125;BME280;49182;50.788;7.318;2022-08-19T10:26:36;100674.06;;;26.58;47.78
43125;BME280;49182;50.788;7.318;2022-08-19T10:29:04;100654.59;;;26.61;48.16
43125;BME280;49182;50.788;7.318;2022-08-19T10:31:36;100663.75;;;26.83;47.70
43125;BME280;49182;50.788;7.318;2022-08-19T10:34:23;100665.69;;;26.48;47.59
43125;BME280;49182;50.788;7.318;2022-08-19T10:36:54;100665.81;;;26.65;47.91
43125;BME280;49182;50.788;7.318;2022-08-19T10:39:27;100676.25;;;26.84;46.32
43125;BME280;49182;50.788;7.318;2022-08-19T10:41:56;100656.19;;;26.85;46.42
43125;BME280;49182;50.788;7.318;2022-08-19T10:44:23;100668.44;;;27.00;46.62
43125;BME280;49182;50.788;7.318;2022-08-19T10:46:51;100663.38;;;27.03;45.47
43125;BME280;49182;50.788;7.318;2022-08-19T10:49:18;100666.47;;;26.95;46.22
43125;BME280;49182;50.788;7.318;2022-08-19T10:51:45;100667.06;;;26.97;46.23
43125;BME280;49182;50.788;7.318;2022-08-19T10:54:14;100656.44;;;26.95;45.93
43125;BME280;49182;50.788;7.318;2022-08-19T10:56:41;100659.13;;;27.07;45.09
43125;BME280;49182;50.788;7.318;2022-08-19T10:59:08;100640.03;;;27.30;44.68
43125;BME280;49182;50.788;7.318;2022-08-19T11:01:35;100633.31;;;27.50;44.45
43125;BME280;49182;50.788;7.318;2022-08-19T11:04:04;100646.94;;;27.66;44.37
43125;BME280;49182;50.788;7.318;2022-08-19T11:06:31;100642.91;;;27.52;44.39
43125;BME280;49182;50.788;7.318;2022-08-19T11:08:58;100625.53;;;27.53;44.75
43125;BME280;49182;50.788;7.318;2022-08-19T11:11:24;100645.13;;;27.72;44.18
43125;BME280;49182;50.788;7.318;2022-08-19T11:13:52;100629.09;;;27.70;44.46
43125;BME280;49182;50.788;7.318;2022-08-19T11:16:21;100633.63;;;27.82;43.76
43125;BME280;49182;50.788;7.318;2022-08-19T11:18:49;100636.16;;;27.71;43.20
43125;BME280;49182;50.788;7.318;2022-08-19T11:21:20;100634.69;;;27.81;42.53
43125;BME280;49182;50.788;7.318;2022-08-19T11:23:48;100627.03;;;27.77;42.85
43125;BME280;49182;50.788;7.318;2022-08-19T11:26:16;100629.03;;;27.82;41.72
43125;BME280;49182;50.788;7.318;2022-08-19T11:28:43;100625.66;;;27.75;41.88
43125;BME280;49182;50.788;7.318;2022-08-19T11:31:10;100626.13;;;27.55;42.29
43125;BME280;49182;50.788;7.318;2022-08-19T11:33:37;100634.03;;;27.73;41.93
43125;BME280;49182;50.788;7.318;2022-08-19T11:36:04;100637.31;;;27.75;40.13
43125;BME280;49182;50.788;7.318;2022-08-19T11:38:33;100613.06;;;27.69;40.24
43125;BME280;49182;50.788;7.318;2022-08-19T11:41:03;100617.16;;;28.05;40.18
43125;BME280;49182;50.788;7.318;2022-08-19T11:43:30;100614.81;;;28.30;39.65
43125;BME280;49182;50.788;7.318;2022-08-19T11:46:04;100587.53;;;28.20;39.77
43125;BME280;49182;50.788;7.318;2022-08-19T11:48:31;100621.16;;;28.36;39.37
43125;BME280;49182;50.788;7.318;2022-08-19T11:50:57;100619.63;;;28.06;39.54
43125;BME280;49182;50.788;7.318;2022-08-19T11:53:24;100618.25;;;28.42;39.03
43125;BME280;49182;50.788;7.318;2022-08-19T11:55:53;100612.81;;;28.64;39.25
43125;BME280;49182;50.788;7.318;2022-08-19T11:58:20;100630.50;;;28.67;37.71
43125;BME280;49182;50.788;7.318;2022-08-19T12:00:47;100605.94;;;28.56;37.19
43125;BME280;49182;50.788;7.318;2022-08-19T12:03:14;100613.56;;;28.60;38.62
43125;BME280;49182;50.788;7.318;2022-08-19T12:05:41;100609.47;;;28.57;37.94
43125;BME280;49182;50.788;7.318;2022-08-19T12:08:08;100607.69;;;28.89;38.37
43125;BME280;49182;50.788;7.318;2022-08-19T12:10:35;100617.13;;;29.04;37.99
43125;BME280;49182;50.788;7.318;2022-08-19T12:13:03;100616.13;;;29.15;36.71
43125;BME280;49182;50.788;7.318;2022-08-19T12:15:30;100606.13;;;29.20;36.96
43125;BME280;49182;50.788;7.318;2022-08-19T12:18:03;100619.22;;;29.23;36.93
43125;BME280;49182;50.788;7.318;2022-08-19T12:20:30;100601.97;;;28.86;37.00
43125;BME280;49182;50.788;7.318;2022-08-19T12:23:02;100602.25;;;28.89;36.83
43125;BME280;49182;50.788;7.318;2022-08-19T12:25:28;100599.44;;;28.79;37.68
43125;BME280;49182;50.788;7.318;2022-08-19T12:27:55;100592.34;;;28.56;38.50
43125;BME280;49182;50.788;7.318;2022-08-19T12:30:24;100599.75;;;28.83;38.88
43125;BME280;49182;50.788;7.318;2022-08-19T12:32:51;100601.22;;;29.17;38.23
43125;BME280;49182;50.788;7.318;2022-08-19T12:35:18;100557.84;;;29.06;37.82
43125;BME280;49182;50.788;7.318;2022-08-19T12:37:48;100591.06;;;29.34;37.85
43125;BME280;49182;50.788;7.318;2022-08-19T12:40:23;100587.56;;;29.12;38.10
43125;BME280;49182;50.788;7.318;2022-08-19T12:42:52;100603.47;;;29.25;37.35
43125;BME280;49182;50.788;7.318;2022-08-19T12:45:18;100586.47;;;28.86;37.44
43125;BME280;49182;50.788;7.318;2022-08-19T12:47:47;100602.53;;;29.15;37.31
43125;BME280;49182;50.788;7.318;2022-08-19T12:50:15;100598.16;;;29.35;36.82
43125;BME280;49182;50.788;7.318;2022-08-19T12:52:42;100573.09;;;29.33;36.74
43125;BME280;49182;50.788;7.318;2022-08-19T12:55:09;100583.63;;;29.57;35.67
43125;BME280;49182;50.788;7.318;2022-08-19T12:57:36;100594.19;;;29.48;35.53
43125;BME280;49182;50.788;7.318;2022-08-19T13:00:05;100586.94;;;29.64;35.17
43125;BME280;49182;50.788;7.318;2022-08-19T13:02:32;100579.72;;;29.80;34.93
43125;BME280;49182;50.788;7.318;2022-08-19T13:05:08;100574.13;;;29.91;35.22